createdAt,value
2022-09-20T00:00:19.180Z,102338.16
2022-09-20T00:02:49.788Z,102331.97
2022-09-20T00:05:19.756Z,102339.72
2022-09-20T00:07:50.831Z,102337.44
2022-09-20T00:10:19.493Z,102330.06
2022-09-20T00:12:48.179Z,102335.13
2022-09-20T00:15:18.780Z,102325.91
2022-09-20T00:17:47.741Z,102328.63
2022-09-20T00:20:17.062Z,102335.28
2022-09-20T00:22:51.242Z,102330.06
2022-09-20T00:25:22.533Z,102332.09
2022-09-20T00:27:53.053Z,102324.94
2022-09-20T00:30:23.519Z,102327.13
2022-09-20T00:32:52.133Z,102332.06
2022-09-20T00:35:21.198Z,102331.09
2022-09-20T00:37:52.035Z,102328.56
2022-09-20T00:40:23.857Z,102331.66
2022-09-20T00:42:54.439Z,102331.94
2022-09-20T00:45:26.713Z,102339.44
2022-09-20T00:48:01.237Z,102338.75
2022-09-20T00:50:37.394Z,102328.28
2022-09-20T00:53:13.459Z,102333.03
2022-09-20T00:55:46.343Z,102343.50
2022-09-20T00:58:16.867Z,102337.38
2022-09-20T01:00:50.323Z,102340.09
2022-09-20T01:03:26.592Z,102338.63
2022-09-20T01:05:57.386Z,102339.50
2022-09-20T01:08:27.163Z,102337.66
2022-09-20T01:10:58.353Z,102340.09
2022-09-20T01:13:28.247Z,102337.53
2022-09-20T01:16:04.236Z,102336.38
2022-09-20T01:18:38.070Z,102331.81
2022-09-20T01:21:09.787Z,102332.63
2022-09-20T01:23:53.275Z,102329.56
2022-09-20T01:27:05.565Z,102333.91
2022-09-20T01:29:59.634Z,102326.66
2022-09-20T01:32:37.659Z,102331.66
2022-09-20T01:35:10.064Z,102332.25
2022-09-20T01:37:55.276Z,102330.31
2022-09-20T01:40:39.192Z,102326.28
2022-09-20T01:43:18.586Z,102332.50
2022-09-20T01:45:53.056Z,102324.31
2022-09-20T01:48:35.322Z,102327.97
2022-09-20T01:51:56.433Z,102332.16
2022-09-20T01:55:28.093Z,102337.94
2022-09-20T01:58:50.507Z,102329.19
2022-09-20T02:02:15.150Z,102327.13
2022-09-20T02:05:36.143Z,102331.09
2022-09-20T02:08:25.343Z,102327.97
2022-09-20T02:11:13.965Z,102325.69
2022-09-20T02:14:06.693Z,102330.25
2022-09-20T02:16:54.909Z,102330.59
2022-09-20T02:20:15.968Z,102323.78
2022-09-20T02:23:07.225Z,102316.63
2022-09-20T02:26:28.794Z,102319.06
2022-09-20T02:29:15.845Z,102326.34
2022-09-20T02:32:12.331Z,102315.22
2022-09-20T02:35:14.010Z,102320.84
2022-09-20T02:38:13.196Z,102321.09
2022-09-20T02:41:14.987Z,102330.16
2022-09-20T02:43:57.261Z,102328.03
2022-09-20T02:46:35.710Z,102324.31
2022-09-20T02:49:12.036Z,102331.34
2022-09-20T02:51:52.145Z,102330.09
2022-09-20T02:54:42.508Z,102325.97
2022-09-20T02:57:25.852Z,102331.78
2022-09-20T03:00:02.813Z,102329.47
2022-09-20T03:02:44.201Z,102327.94
2022-09-20T03:05:20.533Z,102330.25
2022-09-20T03:08:30.990Z,102330.75
2022-09-20T03:11:14.848Z,102330.91
2022-09-20T03:14:04.628Z,102334.88
2022-09-20T03:16:53.732Z,102335.06
2022-09-20T03:19:44.302Z,102329.50
2022-09-20T03:22:33.702Z,102339.69
2022-09-20T03:25:29.366Z,102336.56
2022-09-20T03:28:16.693Z,102340.03
2022-09-20T03:31:04.942Z,102336.13
2022-09-20T03:33:50.437Z,102338.09
2022-09-20T03:36:40.815Z,102340.94
2022-09-20T03:39:47.393Z,102341.63
2022-09-20T03:42:24.544Z,102343.22
2022-09-20T03:45:40.851Z,102341.63
2022-09-20T03:48:55.477Z,102341.72
2022-09-20T03:51:34.284Z,102348.31
2022-09-20T03:54:39.399Z,102355.00
2022-09-20T03:57:39.292Z,102343.34
2022-09-20T04:00:33.977Z,102359.56
2022-09-20T04:03:34.426Z,102349.84
2022-09-20T04:06:25.040Z,102348.25
2022-09-20T04:09:31.079Z,102352.19
2022-09-20T04:12:10.529Z,102353.28
2022-09-20T04:14:51.569Z,102355.88
2022-09-20T04:17:37.269Z,102348.56
2022-09-20T04:20:22.858Z,102354.75
2022-09-20T04:22:59.563Z,102356.94
2022-09-20T04:25:43.043Z,102357.03
2022-09-20T04:28:21.177Z,102349.81
2022-09-20T04:31:02.790Z,102353.28
2022-09-20T04:33:39.973Z,102358.47
2022-09-20T04:36:30.332Z,102347.19
2022-09-20T04:39:22.513Z,102357.81
2022-09-20T04:42:40.210Z,102352.34
2022-09-20T04:45:57.556Z,102353.59
2022-09-20T04:49:09.105Z,102357.34
2022-09-20T04:52:31.723Z,102359.47
2022-09-20T04:55:55.182Z,102356.72
2022-09-20T04:59:08.118Z,102357.81
2022-09-20T05:02:31.046Z,102359.50
2022-09-20T05:05:47.273Z,102361.72
2022-09-20T05:08:58.995Z,102364.81
2022-09-20T05:12:13.362Z,102363.28
2022-09-20T05:15:19.948Z,102361.53
2022-09-20T05:18:27.220Z,102373.38
2022-09-20T05:21:23.204Z,102377.88
2022-09-20T05:24:24.653Z,102378.56
2022-09-20T05:27:12.480Z,102376.88
2022-09-20T05:30:00.258Z,102378.50
2022-09-20T05:32:45.441Z,102387.97
2022-09-20T05:35:25.995Z,102384.75
2022-09-20T05:38:06.933Z,102397.66
2022-09-20T05:41:07.804Z,102400.50
2022-09-20T05:43:44.710Z,102404.81
2022-09-20T05:46:28.113Z,102404.97
2022-09-20T05:49:03.892Z,102405.34
2022-09-20T05:52:00.609Z,102408.22
2022-09-20T05:54:57.884Z,102409.53
2022-09-20T05:57:45.688Z,102415.34
2022-09-20T06:00:26.425Z,102414.88
2022-09-20T06:03:09.924Z,102425.97
2022-09-20T06:05:51.236Z,102418.75
2022-09-20T06:09:04.445Z,102427.66
2022-09-20T06:12:16.327Z,102423.22
2022-09-20T06:15:02.307Z,102418.19
2022-09-20T06:17:39.946Z,102405.06
2022-09-20T06:20:22.105Z,102394.22
2022-09-20T06:22:55.800Z,102399.56
2022-09-20T06:25:31.579Z,102405.88
2022-09-20T06:28:10.599Z,102394.06
2022-09-20T06:30:47.305Z,102404.69
2022-09-20T06:33:20.790Z,102397.72
2022-09-20T06:35:58.909Z,102398.94
2022-09-20T06:39:09.346Z,102399.88
2022-09-20T06:41:43.368Z,102408.75
2022-09-20T06:44:12.160Z,102400.38
2022-09-20T06:46:42.552Z,102411.09
2022-09-20T06:49:11.815Z,102400.78
2022-09-20T06:51:43.470Z,102407.66
2022-09-20T06:54:19.929Z,102411.13
2022-09-20T06:56:51.551Z,102409.50
2022-09-20T06:59:22.393Z,102413.63
2022-09-20T07:01:52.646Z,102415.66
2022-09-20T07:04:22.159Z,102426.09
2022-09-20T07:06:54.502Z,102428.56
2022-09-20T07:09:23.441Z,102428.22
2022-09-20T07:11:53.427Z,102436.50
2022-09-20T07:14:22.177Z,102443.13
2022-09-20T07:16:56.950Z,102446.84
2022-09-20T07:19:26.390Z,102452.19
2022-09-20T07:21:58.236Z,102459.88
2022-09-20T07:24:27.534Z,102456.03
2022-09-20T07:26:57.968Z,102459.69
2022-09-20T07:29:29.498Z,102464.94
2022-09-20T07:32:00.469Z,102465.25
2022-09-20T07:34:29.486Z,102466.69
2022-09-20T07:36:59.663Z,102468.06
2022-09-20T07:39:28.956Z,102471.03
2022-09-20T07:41:58.154Z,102474.91
2022-09-20T07:44:27.941Z,102474.44
2022-09-20T07:47:00.753Z,102469.56
2022-09-20T07:49:31.840Z,102472.09
2022-09-20T07:52:09.665Z,102457.63
2022-09-20T07:54:39.845Z,102474.09
2022-09-20T07:57:08.692Z,102468.09
2022-09-20T07:59:40.134Z,102473.31
2022-09-20T08:02:15.202Z,102466.59
2022-09-20T08:04:44.687Z,102471.88
2022-09-20T08:07:13.829Z,102480.09
2022-09-20T08:09:42.961Z,102485.75
2022-09-20T08:15:11.980Z,102480.81
2022-09-20T08:17:48.229Z,102486.09
2022-09-20T08:20:16.905Z,102489.34
2022-09-20T08:23:00.891Z,102489.66
2022-09-20T08:25:35.620Z,102488.59
2022-09-20T08:28:06.142Z,102480.66
2022-09-20T08:30:35.116Z,102489.09
2022-09-20T08:33:09.128Z,102491.91
2022-09-20T08:35:41.601Z,102501.38
2022-09-20T08:41:11.310Z,102498.03
2022-09-20T08:43:46.035Z,102497.34
2022-09-20T08:46:23.391Z,102505.72
2022-09-20T08:48:55.309Z,102511.44
2022-09-20T08:51:25.196Z,102518.28
2022-09-20T08:53:59.726Z,102518.56
2022-09-20T08:56:36.242Z,102525.53
2022-09-20T08:59:07.961Z,102529.19
2022-09-20T09:01:38.259Z,102531.56
2022-09-20T09:04:16.396Z,102530.41
2022-09-20T09:06:47.779Z,102511.91
2022-09-20T09:09:22.356Z,102517.31
2022-09-20T09:11:54.564Z,102520.03
2022-09-20T09:14:51.091Z,102505.19
2022-09-20T09:17:27.948Z,102503.66
2022-09-20T09:20:02.338Z,102501.75
2022-09-20T09:22:44.585Z,102510.88
2022-09-20T09:25:32.613Z,102511.19
2022-09-20T09:28:06.732Z,102504.97
2022-09-20T09:30:39.519Z,102503.41
2022-09-20T09:33:25.196Z,102506.16
2022-09-20T09:36:00.713Z,102509.88
2022-09-20T09:38:33.709Z,102515.06
2022-09-20T09:41:08.758Z,102511.16
2022-09-20T09:43:40.887Z,102506.69
2022-09-20T09:46:25.973Z,102507.78
2022-09-20T09:49:12.348Z,102511.09
2022-09-20T09:51:45.114Z,102514.03
2022-09-20T09:54:20.584Z,102507.50
2022-09-20T09:57:11.097Z,102510.97
2022-09-20T10:00:23.748Z,102511.91
2022-09-20T10:03:48.434Z,102507.25
2022-09-20T10:06:27.935Z,102512.41
2022-09-20T10:09:29.402Z,102516.19
2022-09-20T10:12:16.948Z,102519.53
2022-09-20T10:15:04.814Z,102525.41
2022-09-20T10:17:51.343Z,102509.94
2022-09-20T10:20:57.647Z,102513.44
2022-09-20T10:24:03.559Z,102502.69
2022-09-20T10:27:01.615Z,102503.38
2022-09-20T10:29:47.256Z,102499.06
2022-09-20T10:32:51.057Z,102500.72
2022-09-20T10:35:31.168Z,102494.72
2022-09-20T10:38:19.740Z,102500.88
2022-09-20T10:41:32.087Z,102501.69
2022-09-20T10:44:14.713Z,102500.06
2022-09-20T10:46:56.193Z,102498.66
2022-09-20T10:49:36.611Z,102502.81
2022-09-20T10:52:34.643Z,102500.91
2022-09-20T10:55:39.464Z,102496.84
2022-09-20T10:58:54.795Z,102504.91
2022-09-20T11:01:35.232Z,102501.91
2022-09-20T11:04:50.537Z,102504.34
2022-09-20T11:07:25.547Z,102506.09
2022-09-20T11:10:03.824Z,102509.06
2022-09-20T11:12:44.122Z,102510.44
2022-09-20T11:15:25.582Z,102505.22
2022-09-20T11:18:13.183Z,102505.56
2022-09-20T11:20:50.292Z,102506.28
2022-09-20T11:23:25.717Z,102516.16
2022-09-20T11:26:00.919Z,102515.34
2022-09-20T11:28:41.179Z,102517.22
2022-09-20T11:31:19.170Z,102517.69
2022-09-20T11:33:56.702Z,102518.53
2022-09-20T11:36:32.162Z,102529.94
2022-09-20T11:39:07.282Z,102518.28
2022-09-20T11:41:36.971Z,102515.25
2022-09-20T11:44:13.574Z,102520.13
2022-09-20T11:46:49.309Z,102526.19
2022-09-20T11:49:27.681Z,102524.19
2022-09-20T11:52:32.631Z,102526.44
2022-09-20T11:55:44.131Z,102520.44
2022-09-20T11:58:19.050Z,102514.91
2022-09-20T12:01:05.281Z,102527.88
2022-09-20T12:03:37.812Z,102522.13
2022-09-20T12:06:33.286Z,102518.69
2022-09-20T12:09:07.636Z,102517.72
2022-09-20T12:11:41.240Z,102512.75
2022-09-20T12:14:21.181Z,102515.97
2022-09-20T12:16:51.391Z,102514.19
2022-09-20T12:19:40.088Z,102511.81
2022-09-20T12:22:31.402Z,102511.31
2022-09-20T12:25:40.624Z,102519.75
2022-09-20T12:28:18.428Z,102520.34
2022-09-20T12:30:47.009Z,102511.81
2022-09-20T12:33:23.147Z,102521.66
2022-09-20T12:36:21.843Z,102511.25
2022-09-20T12:39:21.835Z,102524.47
2022-09-20T12:41:57.945Z,102511.84
2022-09-20T12:44:34.368Z,102515.88
2022-09-20T12:47:08.516Z,102518.66
2022-09-20T12:50:12.736Z,102513.56
2022-09-20T12:53:07.078Z,102512.66
2022-09-20T12:55:55.457Z,102511.59
2022-09-20T12:58:35.185Z,102518.16
2022-09-20T13:01:32.322Z,102521.72
2022-09-20T13:05:04.564Z,102515.03
2022-09-20T13:07:46.850Z,102519.16
2022-09-20T13:10:42.903Z,102515.72
2022-09-20T13:13:42.068Z,102518.41
2022-09-20T13:16:26.601Z,102518.34
2022-09-20T13:19:05.301Z,102520.22
2022-09-20T13:21:38.874Z,102525.53
2022-09-20T13:24:16.714Z,102520.50
2022-09-20T13:26:49.509Z,102525.81
2022-09-20T13:29:31.661Z,102520.53
2022-09-20T13:32:19.163Z,102526.53
2022-09-20T13:34:48.143Z,102526.91
2022-09-20T13:37:23.489Z,102524.56
2022-09-20T13:40:06.577Z,102523.81
2022-09-20T13:45:31.919Z,102521.19
2022-09-20T13:48:23.578Z,102515.91
2022-09-20T13:53:46.172Z,102515.38
2022-09-20T13:56:24.752Z,102518.75
2022-09-20T13:59:08.082Z,102513.31
2022-09-20T14:02:12.573Z,102515.34
2022-09-20T14:10:48.912Z,102519.88
2022-09-20T14:13:19.840Z,102511.50
2022-09-20T14:15:54.626Z,102522.47
2022-09-20T14:27:17.533Z,102525.59
2022-09-20T14:29:49.553Z,102526.56
2022-09-20T14:32:48.212Z,102521.53
2022-09-20T14:35:31.290Z,102509.25
2022-09-20T14:38:16.215Z,102530.38
2022-09-20T14:40:48.848Z,102520.00
2022-09-20T14:43:32.334Z,102514.53
2022-09-20T14:46:13.359Z,102520.00
2022-09-20T14:51:41.811Z,102533.22
2022-09-20T14:54:47.133Z,102521.44
2022-09-20T15:00:36.995Z,102523.97
2022-09-20T15:03:11.936Z,102520.50
2022-09-20T15:08:51.077Z,102514.78
2022-09-20T15:11:21.999Z,102519.94
2022-09-20T15:13:51.616Z,102519.44
2022-09-20T15:16:21.634Z,102525.41
2022-09-20T15:18:50.708Z,102525.19
2022-09-20T15:21:24.014Z,102522.78
2022-09-20T15:23:54.784Z,102522.31
2022-09-20T15:26:23.708Z,102527.28
2022-09-20T15:28:53.477Z,102521.72
2022-09-20T15:31:23.113Z,102519.41
2022-09-20T15:33:52.568Z,102516.22
2022-09-20T15:36:31.906Z,102515.53
2022-09-20T15:39:04.456Z,102515.19
2022-09-20T15:41:34.666Z,102506.16
2022-09-20T15:44:03.647Z,102506.13
2022-09-20T15:46:34.305Z,102506.88
2022-09-20T15:49:06.986Z,102519.44
2022-09-20T15:51:36.177Z,102515.50
2022-09-20T15:54:09.717Z,102520.50
2022-09-20T15:56:40.312Z,102515.78
2022-09-20T15:59:11.996Z,102513.44
2022-09-20T16:01:48.396Z,102513.53
2022-09-20T16:04:22.409Z,102514.50
2022-09-20T16:06:52.039Z,102505.97
2022-09-20T16:09:22.797Z,102512.38
2022-09-20T16:11:58.733Z,102521.28
2022-09-20T16:14:27.931Z,102515.34
2022-09-20T16:16:56.812Z,102527.81
2022-09-20T16:19:28.344Z,102523.59
2022-09-20T16:21:59.568Z,102527.66
2022-09-20T16:24:33.193Z,102526.63
2022-09-20T16:27:03.683Z,102537.91
2022-09-20T16:29:33.915Z,102533.72
2022-09-20T16:32:05.514Z,102541.00
2022-09-20T16:34:36.150Z,102538.56
2022-09-20T16:37:08.862Z,102539.97
2022-09-20T16:39:42.091Z,102548.31
2022-09-20T16:42:13.619Z,102554.06
2022-09-20T16:44:44.056Z,102549.50
2022-09-20T16:47:18.404Z,102552.75
2022-09-20T16:49:47.678Z,102551.78
2022-09-20T16:52:17.369Z,102549.09
2022-09-20T16:54:52.459Z,102551.16
2022-09-20T16:57:22.556Z,102561.19
2022-09-20T16:59:54.444Z,102560.53
2022-09-20T17:02:25.765Z,102562.59
2022-09-20T17:05:00.343Z,102558.91
2022-09-20T17:07:30.594Z,102556.13
2022-09-20T17:10:01.768Z,102567.75
2022-09-20T17:12:33.347Z,102571.56
2022-09-20T17:15:04.569Z,102571.91
2022-09-20T17:17:35.806Z,102564.41
2022-09-20T17:20:08.059Z,102574.06
2022-09-20T17:22:36.909Z,102566.22
2022-09-20T17:25:08.907Z,102573.28
2022-09-20T17:27:39.764Z,102572.19
2022-09-20T17:30:12.212Z,102583.88
2022-09-20T17:32:48.366Z,102578.44
2022-09-20T17:35:18.526Z,102581.38
2022-09-20T17:37:47.740Z,102588.25
2022-09-20T17:40:29.772Z,102580.50
2022-09-20T17:42:58.521Z,102586.69
2022-09-20T17:45:51.735Z,102589.94
2022-09-20T17:48:40.812Z,102587.84
2022-09-20T17:51:34.026Z,102591.84
2022-09-20T17:54:24.684Z,102606.38
2022-09-20T17:57:15.963Z,102606.84
2022-09-20T18:00:05.889Z,102602.50
2022-09-20T18:02:54.304Z,102601.81
2022-09-20T18:05:46.734Z,102610.25
2022-09-20T18:08:37.049Z,102611.13
2022-09-20T18:11:32.340Z,102611.72
2022-09-20T18:14:41.461Z,102612.19
2022-09-20T18:17:37.732Z,102613.38
2022-09-20T18:20:26.110Z,102622.25
2022-09-20T18:23:13.738Z,102622.97
2022-09-20T18:26:04.500Z,102623.66
2022-09-20T18:28:44.081Z,102622.44
2022-09-20T18:31:26.014Z,102621.31
2022-09-20T18:34:05.237Z,102632.22
2022-09-20T18:36:42.245Z,102631.56
2022-09-20T18:39:27.562Z,102632.59
2022-09-20T18:42:03.941Z,102637.94
2022-09-20T18:44:47.666Z,102640.56
2022-09-20T18:47:30.869Z,102642.22
2022-09-20T18:50:09.648Z,102644.56
2022-09-20T18:52:51.808Z,102647.59
2022-09-20T18:55:28.005Z,102644.22
2022-09-20T18:58:02.656Z,102659.16
2022-09-20T19:00:38.987Z,102648.75
2022-09-20T19:03:21.977Z,102657.56
2022-09-20T19:05:59.427Z,102655.75
2022-09-20T19:08:44.719Z,102652.75
2022-09-20T19:11:39.603Z,102662.38
2022-09-20T19:17:58.583Z,102661.56
2022-09-20T19:21:09.797Z,102660.75
2022-09-20T19:24:03.440Z,102661.34
2022-09-20T19:26:54.941Z,102665.53
2022-09-20T19:29:28.020Z,102668.88
2022-09-20T19:32:19.698Z,102663.19
2022-09-20T19:35:07.728Z,102669.75
2022-09-20T19:38:22.983Z,102674.56
2022-09-20T19:41:15.875Z,102672.00
2022-09-20T19:44:19.988Z,102674.41
2022-09-20T19:47:06.894Z,102679.91
2022-09-20T19:49:55.702Z,102680.63
2022-09-20T19:52:34.445Z,102687.94
2022-09-20T19:55:10.406Z,102691.31
2022-09-20T19:58:02.940Z,102694.56
2022-09-20T20:00:35.392Z,102693.63
2022-09-20T20:03:14.862Z,102703.38
2022-09-20T20:06:07.070Z,102705.63
2022-09-20T20:08:46.929Z,102699.81
2022-09-20T20:11:51.836Z,102709.19
2022-09-20T20:14:34.581Z,102707.97
2022-09-20T20:17:25.281Z,102711.34
2022-09-20T20:20:37.113Z,102703.38
2022-09-20T20:23:55.123Z,102714.28
2022-09-20T20:26:32.340Z,102714.91
2022-09-20T20:29:03.189Z,102720.31
2022-09-20T20:31:37.703Z,102719.13
2022-09-20T20:34:09.060Z,102716.88
2022-09-20T20:36:42.944Z,102718.81
2022-09-20T20:39:15.230Z,102716.56
2022-09-20T20:41:52.477Z,102714.53
2022-09-20T20:44:26.271Z,102719.13
2022-09-20T20:46:58.769Z,102721.09
2022-09-20T20:49:29.190Z,102719.28
2022-09-20T20:52:08.904Z,102723.06
2022-09-20T20:54:38.068Z,102723.69
2022-09-20T20:57:10.694Z,102731.00
2022-09-20T20:59:39.161Z,102728.22
2022-09-20T21:02:08.376Z,102725.50
2022-09-20T21:04:40.765Z,102729.88
2022-09-20T21:07:09.533Z,102733.88
2022-09-20T21:09:39.938Z,102735.47
2022-09-20T21:12:10.999Z,102739.63
2022-09-20T21:14:42.638Z,102742.25
2022-09-20T21:17:12.968Z,102743.47
2022-09-20T21:19:42.176Z,102747.75
2022-09-20T21:22:17.319Z,102745.94
2022-09-20T21:24:47.206Z,102747.78
2022-09-20T21:27:18.293Z,102742.69
2022-09-20T21:29:49.650Z,102742.72
2022-09-20T21:32:18.672Z,102749.53
2022-09-20T21:34:47.891Z,102747.13
2022-09-20T21:37:16.937Z,102747.13
2022-09-20T21:39:46.891Z,102744.84
2022-09-20T21:42:27.619Z,102754.94
2022-09-20T21:44:58.195Z,102746.63
2022-09-20T21:47:26.774Z,102739.06
2022-09-20T21:49:55.701Z,102746.44
2022-09-20T21:52:26.590Z,102752.41
2022-09-20T21:54:56.666Z,102748.97
2022-09-20T21:57:27.510Z,102754.88
2022-09-20T21:59:57.561Z,102750.91
2022-09-20T22:02:27.447Z,102755.94
2022-09-20T22:04:56.536Z,102755.22
2022-09-20T22:07:29.446Z,102757.09
2022-09-20T22:10:01.729Z,102754.88
2022-09-20T22:12:31.878Z,102756.19
2022-09-20T22:15:04.207Z,102765.44
2022-09-20T22:17:37.282Z,102752.88
2022-09-20T22:20:07.859Z,102759.63
2022-09-20T22:22:37.839Z,102765.28
2022-09-20T22:25:08.525Z,102761.28
2022-09-20T22:27:39.694Z,102758.84
2022-09-20T22:30:12.211Z,102761.16
2022-09-20T22:32:43.307Z,102755.97
2022-09-20T22:35:12.870Z,102753.22
2022-09-20T22:37:43.160Z,102760.69
2022-09-20T22:40:12.665Z,102764.97
2022-09-20T22:42:42.960Z,102769.31
2022-09-20T22:45:13.014Z,102766.97
2022-09-20T22:47:46.620Z,102768.44
2022-09-20T22:50:17.331Z,102765.75
2022-09-20T22:52:46.340Z,102764.13
2022-09-20T22:55:17.135Z,102770.72
2022-09-20T22:57:53.016Z,102766.06
2022-09-20T23:00:21.929Z,102763.56
2022-09-20T23:02:51.403Z,102769.69
2022-09-20T23:05:20.644Z,102764.78
2022-09-20T23:07:51.709Z,102768.81
2022-09-20T23:10:22.708Z,102773.06
2022-09-20T23:12:54.765Z,102767.75
2022-09-20T23:15:23.462Z,102764.19
2022-09-20T23:17:54.583Z,102772.94
2022-09-20T23:20:24.495Z,102769.66
2022-09-20T23:22:54.277Z,102771.16
2022-09-20T23:25:23.511Z,102772.94
2022-09-20T23:27:56.526Z,102766.16
2022-09-20T23:30:26.155Z,102775.19
2022-09-20T23:32:58.582Z,102767.97
2022-09-20T23:35:27.112Z,102774.91
2022-09-20T23:37:58.061Z,102768.38
2022-09-20T23:40:27.240Z,102761.38
2022-09-20T23:42:59.716Z,102764.88
2022-09-20T23:45:28.929Z,102770.06
2022-09-20T23:48:00.483Z,102767.28
2022-09-20T23:50:31.234Z,102772.50
2022-09-20T23:53:02.329Z,102772.56
2022-09-20T23:55:32.412Z,102775.19
2022-09-20T23:58:03.370Z,102773.81
